createdAt,value
2022-08-25T11:06:59.002Z,31.41
2022-08-25T11:09:36.433Z,31.06
2022-08-25T11:12:30.064Z,31.12
2022-08-25T11:15:02.035Z,31.22
2022-08-25T11:17:42.691Z,31.37
2022-08-25T11:20:20.557Z,31.62
2022-08-25T11:23:06.669Z,31.92
2022-08-25T11:25:40.784Z,32.06
2022-08-25T11:28:20.824Z,31.89
2022-08-25T11:30:52.538Z,32.21
2022-08-25T11:33:20.680Z,32.15
2022-08-25T11:35:56.758Z,32.20
2022-08-25T11:38:55.046Z,32.33
2022-08-25T11:41:32.140Z,32.26
2022-08-25T11:44:26.388Z,32.19
2022-08-25T11:47:00.038Z,32.57
2022-08-25T11:49:52.805Z,32.14
2022-08-25T11:52:46.828Z,32.54
2022-08-25T11:55:14.759Z,32.54
2022-08-25T11:57:44.867Z,32.20
2022-08-25T12:00:31.361Z,32.38
2022-08-25T12:03:01.573Z,32.10
2022-08-25T12:05:29.433Z,32.36
2022-08-25T12:08:20.205Z,32.96
2022-08-25T12:10:50.907Z,33.61
2022-08-25T12:13:47.706Z,33.41
2022-08-25T12:16:36.821Z,33.47
2022-08-25T12:19:29.890Z,33.49
2022-08-25T12:22:22.199Z,33.44
2022-08-25T12:25:19.943Z,33.70
2022-08-25T12:28:09.817Z,33.99
2022-08-25T12:30:50.723Z,34.12
2022-08-25T12:33:30.367Z,34.21
2022-08-25T12:36:03.714Z,33.67
2022-08-25T12:38:42.474Z,33.92
2022-08-25T12:41:14.867Z,33.99
2022-08-25T12:43:46.404Z,33.40
2022-08-25T12:46:20.106Z,32.67
2022-08-25T12:49:26.275Z,34.08
2022-08-25T12:52:10.426Z,34.67
2022-08-25T12:54:52.262Z,34.44
2022-08-25T12:57:43.383Z,34.29
2022-08-25T13:00:22.371Z,34.17
2022-08-25T13:03:32.127Z,34.61
2022-08-25T13:06:02.626Z,34.46
2022-08-25T13:09:08.522Z,34.74
2022-08-25T13:11:46.335Z,34.74
2022-08-25T13:14:34.910Z,35.05
2022-08-25T13:17:06.742Z,34.58
2022-08-25T13:19:35.390Z,34.78
2022-08-25T13:22:16.205Z,34.79
2022-08-25T13:24:47.433Z,34.47
2022-08-25T13:27:28.346Z,35.04
2022-08-25T13:29:58.422Z,33.85
2022-08-25T13:32:35.871Z,34.44
2022-08-25T13:35:12.577Z,34.07
2022-08-25T13:37:42.167Z,35.16
2022-08-25T13:40:24.707Z,34.89
2022-08-25T13:43:03.657Z,35.55
2022-08-25T13:45:41.072Z,34.71
2022-08-25T13:48:22.537Z,34.94
2022-08-25T13:50:52.714Z,34.85
2022-08-25T13:53:26.045Z,35.18
2022-08-25T13:56:02.417Z,35.27
2022-08-25T13:58:44.915Z,34.83
2022-08-25T14:01:22.264Z,35.70
2022-08-25T14:04:33.461Z,35.62
2022-08-25T14:07:20.538Z,35.14
2022-08-25T14:09:48.188Z,35.38
2022-08-25T14:12:33.307Z,34.92
2022-08-25T14:15:02.308Z,35.44
2022-08-25T14:17:39.018Z,34.99
2022-08-25T14:20:19.212Z,34.60
2022-08-25T14:22:46.797Z,35.68
2022-08-25T14:25:14.975Z,35.97
2022-08-25T14:28:03.621Z,36.77
2022-08-25T14:30:36.317Z,38.03
2022-08-25T14:33:05.185Z,43.56
2022-08-25T14:35:34.743Z,46.83
2022-08-25T14:38:09.594Z,47.64
2022-08-25T14:40:37.975Z,48.96
2022-08-25T14:43:09.710Z,50.46
2022-08-25T14:45:43.669Z,49.67
2022-08-25T14:48:19.182Z,51.32
2022-08-25T14:50:46.768Z,51.95
2022-08-25T16:05:31.948Z,53.13
2022-08-25T16:07:59.452Z,56.41
2022-08-25T16:10:27.785Z,55.27
2022-08-25T16:12:55.243Z,53.07
2022-08-25T16:15:28.710Z,51.42
